Terminal Aerodrome Forecast
Issued by NWS

Current Version | Previous Version | Graphics & Text | Print | Product List | Glossary On
Versions: 1 2 3 4 5 6 7 8 9 10 11 12 13 14 15 16 17 18 19 20
000
FTUS41 KPBZ 301400 AAA
TAFMGW
TAF AMD
KMGW 301442Z 3015/0112 21004KT P6SM SCT100
     FM302000 26006KT P6SM VCSH BKN050
     FM010100 VRB03KT P6SM BKN040=

USA.gov is the U.S. government's official web portal to all federal, state and local government web resources and services.